createdAt,value
2023-05-04T00:00:09.521Z,99968.16
2023-05-04T00:02:39.463Z,99975.59
2023-05-04T00:05:10.336Z,99968.13
2023-05-04T00:07:40.862Z,99976.41
2023-05-04T00:10:10.550Z,99965.56
2023-05-04T00:12:39.199Z,99971.09
2023-05-04T00:15:11.754Z,99970.25
2023-05-04T00:17:41.597Z,99970.78
2023-05-04T00:20:11.558Z,99955.84
2023-05-04T00:22:39.988Z,99958.03
2023-05-04T00:25:09.796Z,99955.03
2023-05-04T00:27:38.153Z,99956.97
2023-05-04T00:30:08.748Z,99953.97
2023-05-04T00:32:37.271Z,99960.91
2023-05-04T00:35:08.867Z,99958.19
2023-05-04T00:37:37.207Z,99961.53
2023-05-04T00:40:06.803Z,99962.13
2023-05-04T00:42:35.333Z,99958.00
2023-05-04T00:45:03.699Z,99948.59
2023-05-04T00:47:32.332Z,99954.44
2023-05-04T00:50:01.128Z,99945.59
2023-05-04T00:52:31.286Z,99945.88
2023-05-04T00:55:01.506Z,99943.38
2023-05-04T00:57:29.871Z,99946.41
2023-05-04T00:59:58.523Z,99943.09
2023-05-04T01:02:26.870Z,99942.28
2023-05-04T01:04:55.462Z,99946.13
2023-05-04T01:07:35.252Z,99941.16
2023-05-04T01:10:08.734Z,99948.63
2023-05-04T01:12:42.751Z,99954.44
2023-05-04T01:15:13.327Z,99948.09
2023-05-04T01:17:41.970Z,99953.59
2023-05-04T01:20:11.689Z,99950.00
2023-05-04T01:22:41.856Z,99945.56
2023-05-04T01:25:11.620Z,99940.03
2023-05-04T01:27:47.668Z,99943.91
2023-05-04T01:30:24.946Z,99944.97
2023-05-04T01:32:55.522Z,99943.88
2023-05-04T01:35:24.387Z,99951.03
2023-05-04T01:37:54.456Z,99944.41
2023-05-04T01:40:22.964Z,99953.75
2023-05-04T01:42:51.370Z,99949.88
2023-05-04T01:45:20.242Z,99947.63
2023-05-04T01:47:49.159Z,99942.94
2023-05-04T01:50:17.592Z,99939.63
2023-05-04T01:52:45.975Z,99937.38
2023-05-04T01:55:15.723Z,99934.34
2023-05-04T01:57:44.126Z,99935.72
2023-05-04T02:00:15.129Z,99930.72
2023-05-04T02:02:43.587Z,99935.69
2023-05-04T02:05:12.059Z,99940.66
2023-05-04T02:07:40.406Z,99940.38
2023-05-04T02:10:13.060Z,99937.31
2023-05-04T02:12:43.215Z,99945.88
2023-05-04T02:15:12.856Z,99945.56
2023-05-04T02:17:41.384Z,99940.31
2023-05-04T02:20:13.090Z,99946.38
2023-05-04T02:22:41.565Z,99939.47
2023-05-04T02:25:10.994Z,99938.91
2023-05-04T02:27:39.312Z,99933.94
2023-05-04T02:30:11.188Z,99935.31
2023-05-04T02:32:39.614Z,99946.03
2023-05-04T02:35:08.834Z,99946.84
2023-05-04T02:37:37.196Z,99942.69
2023-05-04T02:40:07.018Z,99938.81
2023-05-04T02:42:35.687Z,99942.09
2023-05-04T02:45:04.185Z,99945.41
2023-05-04T02:47:34.017Z,99945.91
2023-05-04T02:50:02.749Z,99941.75
2023-05-04T02:52:31.558Z,99939.53
2023-05-04T02:55:00.722Z,99935.66
2023-05-04T02:57:29.172Z,99938.94
2023-05-04T02:59:57.605Z,99945.00
2023-05-04T03:02:26.159Z,99930.66
2023-05-04T03:04:55.976Z,99940.28
2023-05-04T03:07:24.271Z,99945.47
2023-05-04T03:09:52.675Z,99939.13
2023-05-04T03:12:21.379Z,99944.34
2023-05-04T03:14:49.747Z,99936.59
2023-05-04T03:17:18.131Z,99929.69
2023-05-04T03:19:46.451Z,99929.97
2023-05-04T03:22:16.214Z,99932.13
2023-05-04T03:24:44.627Z,99931.56
2023-05-04T03:27:13.006Z,99929.91
2023-05-04T03:29:41.373Z,99935.94
2023-05-04T03:32:09.921Z,99932.38
2023-05-04T03:34:38.328Z,99929.03
2023-05-04T03:37:06.627Z,99927.09
2023-05-04T03:39:36.456Z,99931.25
2023-05-04T03:42:05.316Z,99937.56
2023-05-04T03:44:33.667Z,99933.41
2023-05-04T03:47:02.054Z,99938.09
2023-05-04T03:49:30.439Z,99948.00
2023-05-04T03:51:58.801Z,99938.91
2023-05-04T03:54:27.409Z,99940.84
2023-05-04T03:56:57.160Z,99945.00
2023-05-04T03:59:25.693Z,99947.50
2023-05-04T04:01:54.115Z,99948.34
2023-05-04T04:04:22.517Z,99939.78
2023-05-04T04:06:50.951Z,99950.53
2023-05-04T04:09:19.305Z,99946.69
2023-05-04T04:11:47.639Z,99948.94
2023-05-04T04:14:17.352Z,99948.66
2023-05-04T04:16:45.706Z,99951.75
2023-05-04T04:19:14.077Z,99953.97
2023-05-04T04:21:42.597Z,99949.88
2023-05-04T04:24:11.255Z,99949.59
2023-05-04T04:26:39.756Z,99952.38
2023-05-04T04:29:08.100Z,99946.34
2023-05-04T04:31:37.999Z,99941.13
2023-05-04T04:34:06.413Z,99940.31
2023-05-04T04:36:34.953Z,99945.59
2023-05-04T04:39:05.903Z,99948.41
2023-05-04T04:41:34.329Z,99950.34
2023-05-04T04:44:02.714Z,99950.13
2023-05-04T04:46:32.506Z,99951.81
2023-05-04T04:49:02.320Z,99962.34
2023-05-04T04:51:30.707Z,99953.00
2023-05-04T04:53:59.091Z,99953.84
2023-05-04T04:56:27.521Z,99957.19
2023-05-04T04:58:55.857Z,99960.00
2023-05-04T05:01:24.982Z,99950.69
2023-05-04T05:03:53.363Z,99959.63
2023-05-04T05:06:23.867Z,99946.94
2023-05-04T05:08:52.543Z,99963.53
2023-05-04T05:11:20.843Z,99956.88
2023-05-04T05:13:49.238Z,99951.94
2023-05-04T05:16:17.645Z,99952.78
2023-05-04T05:18:46.078Z,99968.00
2023-05-04T05:21:15.261Z,99954.72
2023-05-04T05:23:45.043Z,99975.72
2023-05-04T05:26:13.477Z,99967.44
2023-05-04T05:28:42.108Z,99966.06
2023-05-04T05:31:11.634Z,99967.72
2023-05-04T05:33:41.392Z,99967.72
2023-05-04T05:36:10.593Z,99962.19
2023-05-04T05:38:38.957Z,99972.97
2023-05-04T05:41:09.813Z,99964.41
2023-05-04T05:43:38.758Z,99957.50
2023-05-04T05:46:08.465Z,99966.59
2023-05-04T05:48:37.006Z,99967.97
2023-05-04T05:51:05.566Z,99965.75
2023-05-04T05:53:34.008Z,99975.13
2023-05-04T05:56:02.416Z,99958.22
2023-05-04T05:58:32.231Z,99962.06
2023-05-04T06:01:00.681Z,99961.19
2023-05-04T06:03:29.231Z,99961.13
2023-05-04T06:05:57.645Z,99955.56
2023-05-04T06:08:26.127Z,99958.03
2023-05-04T06:10:56.410Z,99948.00
2023-05-04T06:13:24.885Z,99949.34
2023-05-04T06:15:55.189Z,99952.63
2023-05-04T06:18:23.700Z,99950.59
2023-05-04T06:20:59.121Z,99956.38
2023-05-04T06:23:29.556Z,99953.53
2023-05-04T06:25:58.183Z,99953.47
2023-05-04T06:28:26.649Z,99954.50
2023-05-04T06:30:56.726Z,99948.03
2023-05-04T06:33:25.239Z,99936.31
2023-05-04T06:35:54.237Z,99951.22
2023-05-04T06:38:22.858Z,99947.84
2023-05-04T06:40:51.323Z,99948.84
2023-05-04T06:43:19.754Z,99941.00
2023-05-04T06:45:48.114Z,99950.94
2023-05-04T06:48:18.514Z,99957.53
2023-05-04T06:50:47.394Z,99949.47
2023-05-04T06:53:15.808Z,99949.16
2023-05-04T06:55:44.422Z,99941.66
2023-05-04T06:58:12.769Z,99932.16
2023-05-04T07:00:42.578Z,99938.44
2023-05-04T07:03:11.196Z,99941.06
2023-05-04T07:05:41.169Z,99941.78
2023-05-04T07:08:10.262Z,99935.56
2023-05-04T07:10:38.629Z,99939.97
2023-05-04T07:13:07.285Z,99942.59
2023-05-04T07:15:35.859Z,99943.81
2023-05-04T07:18:04.445Z,99945.63
2023-05-04T07:20:33.084Z,99937.13
2023-05-04T07:23:02.851Z,99947.84
2023-05-04T07:25:31.754Z,99947.41
2023-05-04T07:28:00.185Z,99944.16
2023-05-04T07:30:28.630Z,99954.00
2023-05-04T07:32:57.129Z,99949.19
2023-05-04T07:35:25.747Z,99951.31
2023-05-04T07:37:54.249Z,99940.91
2023-05-04T07:40:25.538Z,99940.81
2023-05-04T07:42:54.194Z,99950.50
2023-05-04T07:45:22.548Z,99935.44
2023-05-04T07:47:52.584Z,99939.91
2023-05-04T07:50:21.514Z,99937.03
2023-05-04T07:52:49.930Z,99938.91
2023-05-04T07:55:19.037Z,99933.53
2023-05-04T07:57:48.826Z,99936.22
2023-05-04T08:00:18.647Z,99934.69
2023-05-04T08:02:47.270Z,99923.66
2023-05-04T08:05:15.914Z,99926.53
2023-05-04T08:07:44.323Z,99931.44
2023-05-04T08:10:12.905Z,99926.28
2023-05-04T08:12:42.229Z,99924.41
2023-05-04T08:15:13.226Z,99928.97
2023-05-04T08:17:42.320Z,99929.56
2023-05-04T08:20:13.117Z,99919.97
2023-05-04T08:22:41.536Z,99919.31
2023-05-04T08:25:11.338Z,99924.59
2023-05-04T08:27:40.785Z,99918.59
2023-05-04T08:30:12.064Z,99926.03
2023-05-04T08:32:40.544Z,99927.03
2023-05-04T08:35:09.851Z,99931.16
2023-05-04T08:37:38.362Z,99914.75
2023-05-04T08:40:08.701Z,99926.72
2023-05-04T08:42:38.012Z,99924.56
2023-05-04T08:45:08.397Z,99917.34
2023-05-04T08:47:38.465Z,99912.59
2023-05-04T08:50:08.715Z,99918.34
2023-05-04T08:52:38.033Z,99912.66
2023-05-04T08:55:07.833Z,99915.34
2023-05-04T08:57:36.860Z,99908.84
2023-05-04T09:00:07.082Z,99909.94
2023-05-04T09:02:38.031Z,99911.53
2023-05-04T09:05:08.710Z,99910.06
2023-05-04T09:07:37.371Z,99900.66
2023-05-04T09:10:07.566Z,99911.81
2023-05-04T09:12:37.974Z,99908.41
2023-05-04T09:15:17.860Z,99911.41
2023-05-04T09:17:58.571Z,99908.78
2023-05-04T09:20:27.227Z,99901.75
2023-05-04T09:23:03.923Z,99897.50
2023-05-04T09:25:32.486Z,99903.47
2023-05-04T09:28:01.039Z,99902.53
2023-05-04T09:30:29.499Z,99897.78
2023-05-04T09:32:59.275Z,99887.94
2023-05-04T09:35:33.565Z,99886.28
2023-05-04T09:38:02.679Z,99884.50
2023-05-04T09:40:36.424Z,99887.78
2023-05-04T09:43:06.713Z,99885.72
2023-05-04T09:45:42.280Z,99886.53
2023-05-04T09:48:20.513Z,99874.22
2023-05-04T09:50:54.646Z,99880.84
2023-05-04T09:53:25.052Z,99874.28
2023-05-04T09:56:08.165Z,99872.28
2023-05-04T09:58:36.898Z,99868.75
2023-05-04T10:01:06.257Z,99863.66
2023-05-04T10:03:36.662Z,99857.25
2023-05-04T10:06:09.062Z,99858.06
2023-05-04T10:08:38.140Z,99853.81
2023-05-04T10:11:07.582Z,99847.59
2023-05-04T10:13:36.066Z,99855.66
2023-05-04T10:16:29.028Z,99833.13
2023-05-04T10:19:46.998Z,99848.41
2023-05-04T10:22:38.546Z,99839.91
2023-05-04T10:25:34.776Z,99829.75
2023-05-04T10:28:17.862Z,99828.97
2023-05-04T10:30:46.550Z,99827.69
2023-05-04T10:33:15.195Z,99820.63
2023-05-04T10:35:54.128Z,99824.25
2023-05-04T10:38:34.034Z,99825.72
2023-05-04T10:41:02.698Z,99814.78
2023-05-04T10:43:32.574Z,99813.06
2023-05-04T10:46:02.582Z,99819.31
2023-05-04T10:48:38.040Z,99811.69
2023-05-04T10:51:20.609Z,99802.78
2023-05-04T10:53:49.232Z,99794.19
2023-05-04T10:56:26.087Z,99784.91
2023-05-04T10:58:55.630Z,99788.13
2023-05-04T11:01:24.583Z,99787.09
2023-05-04T11:03:53.970Z,99773.75
2023-05-04T11:06:25.517Z,99774.28
2023-05-04T11:09:01.893Z,99777.63
2023-05-04T11:11:30.634Z,99769.75
2023-05-04T11:13:59.884Z,99763.94
2023-05-04T11:16:29.019Z,99753.91
2023-05-04T11:19:09.616Z,99751.50
2023-05-04T11:21:39.441Z,99745.91
2023-05-04T11:24:08.471Z,99745.84
2023-05-04T11:26:48.280Z,99742.66
2023-05-04T11:29:17.810Z,99745.94
2023-05-04T11:31:55.846Z,99749.53
2023-05-04T11:34:24.269Z,99734.75
2023-05-04T11:36:54.644Z,99731.25
2023-05-04T11:39:23.093Z,99732.63
2023-05-04T11:41:51.552Z,99726.28
2023-05-04T11:44:20.356Z,99732.09
2023-05-04T11:46:51.696Z,99725.28
2023-05-04T11:49:20.416Z,99732.28
2023-05-04T11:51:48.880Z,99728.66
2023-05-04T11:54:24.719Z,99722.19
2023-05-04T11:56:53.089Z,99715.66
2023-05-04T11:59:21.435Z,99710.66
2023-05-04T12:01:49.918Z,99707.59
2023-05-04T12:04:18.421Z,99712.22
2023-05-04T12:06:47.270Z,99705.47
2023-05-04T12:09:16.569Z,99714.53
2023-05-04T12:11:56.279Z,99709.72
2023-05-04T12:14:28.361Z,99709.31
2023-05-04T12:17:01.776Z,99715.50
2023-05-04T12:19:31.372Z,99716.19
2023-05-04T12:21:59.740Z,99706.34
2023-05-04T12:24:28.798Z,99710.84
2023-05-04T12:26:58.582Z,99700.75
2023-05-04T12:29:26.976Z,99702.59
2023-05-04T12:31:55.451Z,99697.53
2023-05-04T12:34:24.090Z,99697.25
2023-05-04T12:36:53.005Z,99690.41
2023-05-04T12:39:21.624Z,99689.38
2023-05-04T12:41:49.962Z,99691.56
2023-05-04T12:44:19.909Z,99693.41
2023-05-04T12:46:48.294Z,99696.28
2023-05-04T12:49:16.841Z,99685.84
2023-05-04T12:51:45.840Z,99685.22
2023-05-04T12:54:14.222Z,99687.91
2023-05-04T12:56:42.634Z,99696.28
2023-05-04T12:59:11.102Z,99686.72
2023-05-04T13:01:41.517Z,99682.59
2023-05-04T13:04:09.980Z,99676.94
2023-05-04T13:06:38.606Z,99672.94
2023-05-04T13:09:06.999Z,99675.03
2023-05-04T13:11:35.565Z,99675.19
2023-05-04T13:14:03.996Z,99672.72
2023-05-04T13:16:32.625Z,99666.63
2023-05-04T13:19:03.052Z,99655.88
2023-05-04T13:21:31.723Z,99660.22
2023-05-04T13:24:00.483Z,99664.53
2023-05-04T13:26:30.019Z,99650.81
2023-05-04T13:28:58.455Z,99659.31
2023-05-04T13:31:26.924Z,99655.47
2023-05-04T13:33:55.414Z,99647.41
2023-05-04T13:36:25.182Z,99649.22
2023-05-04T13:38:53.951Z,99641.47
2023-05-04T13:41:23.799Z,99640.66
2023-05-04T13:43:52.541Z,99642.19
2023-05-04T13:46:21.930Z,99630.47
2023-05-04T13:48:50.341Z,99629.91
2023-05-04T13:51:19.004Z,99639.13
2023-05-04T13:53:48.760Z,99625.56
2023-05-04T13:56:18.083Z,99634.69
2023-05-04T13:58:46.581Z,99620.16
2023-05-04T14:01:15.082Z,99607.72
2023-05-04T14:03:43.481Z,99614.94
2023-05-04T14:06:11.884Z,99607.38
2023-05-04T14:08:40.313Z,99613.81
2023-05-04T14:11:10.192Z,99611.63
2023-05-04T14:13:38.777Z,99613.69
2023-05-04T14:16:07.840Z,99618.00
2023-05-04T14:18:37.070Z,99619.09
2023-05-04T14:21:05.754Z,99618.75
2023-05-04T14:23:34.222Z,99605.53
2023-05-04T14:26:02.595Z,99617.53
2023-05-04T14:28:33.234Z,99608.44
2023-05-04T14:31:08.855Z,99603.00
2023-05-04T14:33:37.400Z,99606.47
2023-05-04T14:36:06.796Z,99615.47
2023-05-04T14:38:36.150Z,99608.06
2023-05-04T14:41:07.747Z,99612.09
2023-05-04T14:43:37.492Z,99606.91
2023-05-04T14:46:06.773Z,99603.91
2023-05-04T14:48:35.222Z,99593.19
2023-05-04T14:51:03.682Z,99592.88
2023-05-04T14:53:36.142Z,99592.31
2023-05-04T14:56:06.094Z,99585.34
2023-05-04T14:58:36.434Z,99582.00
2023-05-04T15:01:04.992Z,99583.28
2023-05-04T15:03:33.461Z,99578.81
2023-05-04T15:06:01.938Z,99582.75
2023-05-04T15:08:30.333Z,99583.53
2023-05-04T15:10:59.173Z,99588.31
2023-05-04T15:13:27.855Z,99581.97
2023-05-04T15:15:57.718Z,99582.41
2023-05-04T15:18:26.653Z,99580.06
2023-05-04T15:20:55.081Z,99586.31
2023-05-04T15:23:23.588Z,99576.53
2023-05-04T15:25:51.974Z,99578.72
2023-05-04T15:28:22.947Z,99571.75
2023-05-04T15:30:51.521Z,99567.94
2023-05-04T15:33:21.704Z,99573.44
2023-05-04T15:35:50.102Z,99570.00
2023-05-04T15:38:18.969Z,99575.06
2023-05-04T15:40:47.280Z,99573.22
2023-05-04T15:43:15.791Z,99568.53
2023-05-04T15:45:44.305Z,99573.78
2023-05-04T15:48:12.687Z,99581.66
2023-05-04T15:50:42.454Z,99584.84
2023-05-04T15:53:10.842Z,99588.38
2023-05-04T15:55:39.317Z,99583.69
2023-05-04T15:58:07.856Z,99576.19
2023-05-04T16:00:36.361Z,99577.19
2023-05-04T16:03:05.603Z,99579.41
2023-05-04T16:05:33.987Z,99567.97
2023-05-04T16:08:04.091Z,99572.78
2023-05-04T16:10:33.319Z,99577.22
2023-05-04T16:13:04.187Z,99576.34
2023-05-04T16:15:32.977Z,99574.34
2023-05-04T16:18:01.389Z,99575.25
2023-05-04T16:20:30.426Z,99580.47
2023-05-04T16:22:58.878Z,99571.94
2023-05-04T16:25:28.605Z,99576.69
2023-05-04T16:27:56.978Z,99576.25
2023-05-04T16:30:30.170Z,99583.88
2023-05-04T16:32:58.602Z,99579.50
2023-05-04T16:35:27.429Z,99578.31
2023-05-04T16:37:55.838Z,99577.91
2023-05-04T16:40:24.672Z,99580.31
2023-05-04T16:42:54.421Z,99584.38
2023-05-04T16:45:24.867Z,99579.16
2023-05-04T16:47:53.772Z,99572.72
2023-05-04T16:50:22.238Z,99577.91
2023-05-04T16:52:50.596Z,99573.16
2023-05-04T16:55:19.001Z,99571.53
2023-05-04T16:57:47.732Z,99571.91
2023-05-04T17:00:18.771Z,99573.44
2023-05-04T17:02:47.174Z,99572.97
2023-05-04T17:05:15.914Z,99570.47
2023-05-04T17:07:44.324Z,99573.31
2023-05-04T17:10:13.771Z,99566.00
2023-05-04T17:12:42.633Z,99569.97
2023-05-04T17:15:12.482Z,99571.09
2023-05-04T17:17:42.401Z,99570.22
2023-05-04T17:20:15.080Z,99573.81
2023-05-04T17:22:44.536Z,99563.38
2023-05-04T17:25:14.113Z,99566.16
2023-05-04T17:27:43.828Z,99575.31
2023-05-04T17:30:14.015Z,99567.28
2023-05-04T17:32:43.757Z,99580.91
2023-05-04T17:35:21.183Z,99573.25
2023-05-04T17:37:57.596Z,99576.06
2023-05-04T17:40:27.582Z,99576.50
2023-05-04T17:42:56.492Z,99584.13
2023-05-04T17:45:24.884Z,99586.16
2023-05-04T17:47:54.802Z,99589.78
2023-05-04T17:50:23.749Z,99587.84
2023-05-04T17:52:56.445Z,99580.97
2023-05-04T17:55:25.482Z,99592.69
2023-05-04T17:57:54.778Z,99592.72
2023-05-04T18:00:23.674Z,99598.38
2023-05-04T18:02:52.289Z,99595.56
2023-05-04T18:05:22.293Z,99599.22
2023-05-04T18:07:50.763Z,99607.66
2023-05-04T18:10:19.370Z,99604.03
2023-05-04T18:12:48.206Z,99597.59
2023-05-04T18:15:18.468Z,99600.41
2023-05-04T18:17:48.636Z,99615.22
2023-05-04T18:20:17.095Z,99621.63
2023-05-04T18:22:47.074Z,99618.50
2023-05-04T18:25:16.158Z,99631.34
2023-05-04T18:27:44.962Z,99632.13
2023-05-04T18:30:14.066Z,99629.00
2023-05-04T18:32:42.815Z,99627.00
2023-05-04T18:35:11.826Z,99631.09
2023-05-04T18:37:40.991Z,99633.88
2023-05-04T18:40:12.735Z,99624.66
2023-05-04T18:42:41.537Z,99635.13
2023-05-04T18:45:12.486Z,99640.72
2023-05-04T18:47:41.045Z,99640.34
2023-05-04T18:50:11.568Z,99642.78
2023-05-04T18:52:41.322Z,99638.81
2023-05-04T18:55:12.035Z,99641.25
2023-05-04T18:57:41.711Z,99643.66
2023-05-04T19:00:16.619Z,99642.47
2023-05-04T19:02:46.334Z,99642.94
2023-05-04T19:05:16.485Z,99649.28
2023-05-04T19:07:44.874Z,99648.91
2023-05-04T19:10:15.350Z,99655.25
2023-05-04T19:12:44.389Z,99664.88
2023-05-04T19:15:13.250Z,99665.66
2023-05-04T19:17:41.749Z,99661.31
2023-05-04T19:20:11.209Z,99665.72
2023-05-04T19:22:39.988Z,99668.13
2023-05-04T19:25:10.144Z,99664.91
2023-05-04T19:27:40.906Z,99670.41
2023-05-04T19:30:10.502Z,99661.34
2023-05-04T19:32:38.928Z,99666.75
2023-05-04T19:35:09.168Z,99663.25
2023-05-04T19:37:37.720Z,99666.13
2023-05-04T19:40:07.849Z,99667.06
2023-05-04T19:42:36.693Z,99669.47
2023-05-04T19:45:08.933Z,99673.50
2023-05-04T19:47:38.360Z,99679.38
2023-05-04T19:50:09.854Z,99680.63
2023-05-04T19:52:39.024Z,99672.09
2023-05-04T19:55:09.251Z,99673.03
2023-05-04T19:57:37.806Z,99669.69
2023-05-04T20:00:10.573Z,99674.25
2023-05-04T20:02:39.343Z,99672.63
2023-05-04T20:05:08.483Z,99668.78
2023-05-04T20:07:36.996Z,99670.22
2023-05-04T20:10:06.460Z,99662.19
2023-05-04T20:12:36.529Z,99663.63
2023-05-04T20:15:07.369Z,99661.47
2023-05-04T20:17:35.854Z,99668.47
2023-05-04T20:20:04.623Z,99663.19
2023-05-04T20:22:33.330Z,99659.91
2023-05-04T20:25:01.867Z,99661.34
2023-05-04T20:27:30.196Z,99658.03
2023-05-04T20:29:59.000Z,99665.88
2023-05-04T20:32:30.481Z,99659.81
2023-05-04T20:34:58.948Z,99661.75
2023-05-04T20:37:27.281Z,99662.91
2023-05-04T20:39:56.037Z,99658.78
2023-05-04T20:42:24.613Z,99660.72
2023-05-04T20:44:52.962Z,99659.38
2023-05-04T20:47:21.416Z,99664.13
2023-05-04T20:49:51.169Z,99662.78
2023-05-04T20:52:19.515Z,99661.16
2023-05-04T20:54:47.844Z,99668.97
2023-05-04T20:57:16.254Z,99657.31
2023-05-04T20:59:44.627Z,99654.03
2023-05-04T21:02:13.065Z,99655.16
2023-05-04T21:04:42.586Z,99661.84
2023-05-04T21:07:12.401Z,99651.88
2023-05-04T21:09:40.767Z,99656.59
2023-05-04T21:12:09.232Z,99655.78
2023-05-04T21:14:37.762Z,99654.94
2023-05-04T21:17:07.057Z,99648.59
2023-05-04T21:19:35.425Z,99647.75
2023-05-04T21:22:03.725Z,99643.31
2023-05-04T21:24:33.460Z,99653.91
2023-05-04T21:27:02.026Z,99645.38
2023-05-04T21:29:30.632Z,99646.81
2023-05-04T21:31:59.021Z,99646.59
2023-05-04T21:34:27.425Z,99650.81
2023-05-04T21:36:55.841Z,99649.78
2023-05-04T21:39:24.269Z,99648.75
2023-05-04T21:41:54.066Z,99647.41
2023-05-04T21:44:22.446Z,99647.50
2023-05-04T21:46:51.906Z,99643.69
2023-05-04T21:49:20.510Z,99652.63
2023-05-04T21:51:49.236Z,99642.72
2023-05-04T21:54:17.627Z,99639.69
2023-05-04T21:56:46.030Z,99630.84
2023-05-04T21:59:15.861Z,99638.97
2023-05-04T22:01:44.283Z,99635.13
2023-05-04T22:04:12.781Z,99636.59
2023-05-04T22:06:41.548Z,99631.94
2023-05-04T22:09:10.178Z,99629.78
2023-05-04T22:11:38.615Z,99628.44
2023-05-04T22:14:06.953Z,99634.88
2023-05-04T22:16:36.791Z,99633.03
2023-05-04T22:19:05.665Z,99631.69
2023-05-04T22:21:34.174Z,99628.16
2023-05-04T22:24:02.697Z,99631.53
2023-05-04T22:26:31.195Z,99631.31
2023-05-04T22:29:00.148Z,99631.09
2023-05-04T22:31:28.511Z,99634.47
2023-05-04T22:33:58.327Z,99628.72
2023-05-04T22:36:26.781Z,99631.25
2023-05-04T22:38:55.277Z,99633.50
2023-05-04T22:41:23.785Z,99621.63
2023-05-04T22:43:52.200Z,99626.47
2023-05-04T22:46:20.580Z,99628.19
2023-05-04T22:48:49.320Z,99618.81
2023-05-04T22:51:19.119Z,99627.75
2023-05-04T22:53:47.473Z,99626.66
2023-05-04T22:56:16.027Z,99609.78
2023-05-04T22:58:46.948Z,99607.59
2023-05-04T23:01:15.372Z,99610.38
2023-05-04T23:03:45.146Z,99606.25
2023-05-04T23:06:13.745Z,99602.94
2023-05-04T23:08:44.127Z,99612.69
2023-05-04T23:11:12.662Z,99601.06
2023-05-04T23:13:41.754Z,99619.13
2023-05-04T23:16:10.122Z,99610.59
2023-05-04T23:18:38.596Z,99605.63
2023-05-04T23:21:07.468Z,99607.06
2023-05-04T23:23:36.215Z,99608.78
2023-05-04T23:26:06.512Z,99604.97
2023-05-04T23:28:34.872Z,99605.03
2023-05-04T23:31:03.981Z,99594.81
2023-05-04T23:33:32.328Z,99605.97
2023-05-04T23:36:00.852Z,99600.47
2023-05-04T23:38:29.200Z,99599.75
2023-05-04T23:40:57.527Z,99597.31
2023-05-04T23:43:27.348Z,99596.56
2023-05-04T23:46:01.460Z,99588.59
2023-05-04T23:48:30.191Z,99589.47
2023-05-04T23:51:03.809Z,99595.09
2023-05-04T23:53:33.719Z,99595.97
2023-05-04T23:56:04.520Z,99595.97
2023-05-04T23:58:35.810Z,99588.03
